createdAt,value
2022-08-23T00:00:18.194Z,27.54
2022-08-23T00:01:18.197Z,27.54
2022-08-23T00:02:23.854Z,27.47
2022-08-23T00:03:18.291Z,27.47
2022-08-23T00:04:19.675Z,27.55
2022-08-23T00:05:18.198Z,27.46
2022-08-23T00:06:18.199Z,27.39
2022-08-23T00:07:18.199Z,27.46
2022-08-23T00:08:18.198Z,27.46
2022-08-23T00:09:18.199Z,27.41
2022-08-23T00:10:18.199Z,27.39
2022-08-23T00:11:18.200Z,27.47
2022-08-23T00:12:18.201Z,27.50
2022-08-23T00:13:18.202Z,27.50
2022-08-23T00:14:18.201Z,27.47
2022-08-23T00:15:18.205Z,27.46
2022-08-23T00:16:18.203Z,27.46
2022-08-23T00:17:31.127Z,27.49
2022-08-23T00:18:18.203Z,27.51
2022-08-23T00:19:18.205Z,27.54
2022-08-23T00:20:18.206Z,27.50
2022-08-23T00:21:18.207Z,27.49
2022-08-23T00:22:18.206Z,27.47
2022-08-23T00:23:18.207Z,27.55
2022-08-23T00:24:18.207Z,27.50
2022-08-23T00:25:18.214Z,27.49
2022-08-23T00:26:18.206Z,27.51
2022-08-23T00:27:18.209Z,27.46
2022-08-23T00:28:18.209Z,27.54
2022-08-23T00:29:18.211Z,27.50
2022-08-23T00:30:18.214Z,27.47
2022-08-23T00:31:18.210Z,27.50
2022-08-23T00:32:18.211Z,27.47
2022-08-23T00:33:18.213Z,27.50
2022-08-23T00:34:18.212Z,27.49
2022-08-23T00:35:26.490Z,27.43
2022-08-23T00:36:18.212Z,27.46
2022-08-23T00:37:18.215Z,27.46
2022-08-23T00:38:32.382Z,27.46
2022-08-23T00:39:18.215Z,27.51
2022-08-23T00:40:18.297Z,27.54
2022-08-23T00:41:18.216Z,27.46
2022-08-23T00:42:18.215Z,27.43
2022-08-23T00:43:18.216Z,27.47
2022-08-23T00:44:18.216Z,27.54
2022-08-23T00:45:18.221Z,27.49
2022-08-23T00:46:18.218Z,27.54
2022-08-23T00:47:18.218Z,27.46
2022-08-23T00:48:18.217Z,27.43
2022-08-23T00:49:18.221Z,27.47
2022-08-23T00:50:23.397Z,27.47
2022-08-23T00:51:18.222Z,27.43
2022-08-23T00:52:18.220Z,27.47
2022-08-23T00:53:18.225Z,27.49
2022-08-23T00:54:18.221Z,27.49
2022-08-23T00:55:18.227Z,27.44
2022-08-23T00:56:18.222Z,27.41
2022-08-23T00:57:18.224Z,27.40
2022-08-23T00:58:18.222Z,27.43
2022-08-23T00:59:18.225Z,27.41
2022-08-23T01:00:18.226Z,27.41
2022-08-23T01:01:18.310Z,27.43
2022-08-23T01:02:18.224Z,27.41
2022-08-23T01:03:18.227Z,27.36
2022-08-23T01:04:18.229Z,27.41
2022-08-23T01:05:18.231Z,27.44
2022-08-23T01:06:18.231Z,27.40
2022-08-23T01:07:18.228Z,27.50
2022-08-23T01:08:18.228Z,27.41
2022-08-23T01:09:18.229Z,27.41
2022-08-23T01:10:21.001Z,27.40
2022-08-23T01:11:18.231Z,27.43
2022-08-23T01:12:24.163Z,27.43
2022-08-23T01:13:18.232Z,27.41
2022-08-23T01:14:18.231Z,27.39
2022-08-23T01:15:18.233Z,27.39
2022-08-23T01:16:18.232Z,27.44
2022-08-23T01:17:18.234Z,27.39
2022-08-23T01:18:18.232Z,27.41
2022-08-23T01:19:18.234Z,27.46
2022-08-23T01:20:18.233Z,27.39
2022-08-23T01:21:18.235Z,27.37
2022-08-23T01:22:18.235Z,27.37
2022-08-23T01:23:18.238Z,27.39
2022-08-23T01:24:27.563Z,27.41
2022-08-23T01:25:18.238Z,27.40
2022-08-23T01:26:19.153Z,27.39
2022-08-23T01:27:18.244Z,27.41
2022-08-23T01:28:18.243Z,27.40
2022-08-23T01:29:18.239Z,27.37
2022-08-23T01:30:18.238Z,27.41
2022-08-23T01:31:18.240Z,27.46
2022-08-23T01:32:18.241Z,27.39
2022-08-23T01:33:18.242Z,27.49
2022-08-23T01:34:18.243Z,27.47
2022-08-23T01:35:18.282Z,27.49
2022-08-23T01:36:18.244Z,27.43
2022-08-23T01:37:18.244Z,27.44
2022-08-23T01:38:18.245Z,27.39
2022-08-23T01:39:18.243Z,27.41
2022-08-23T01:40:18.302Z,27.36
2022-08-23T01:41:18.244Z,27.40
2022-08-23T01:42:18.246Z,27.41
2022-08-23T01:43:18.246Z,27.46
2022-08-23T01:44:18.248Z,27.41
2022-08-23T01:45:18.396Z,27.39
2022-08-23T01:46:18.248Z,27.37
2022-08-23T01:47:18.249Z,27.50
2022-08-23T01:48:18.249Z,27.40
2022-08-23T01:49:18.250Z,27.44
2022-08-23T01:50:18.249Z,27.50
2022-08-23T01:51:18.250Z,27.50
2022-08-23T01:52:18.252Z,27.50
2022-08-23T01:53:18.251Z,27.43
2022-08-23T01:54:18.253Z,27.44
2022-08-23T01:55:18.251Z,27.39
2022-08-23T01:56:18.254Z,27.47
2022-08-23T01:57:18.253Z,27.46
2022-08-23T01:58:18.254Z,27.41
2022-08-23T01:59:18.254Z,27.50
2022-08-23T02:00:18.257Z,27.50
2022-08-23T02:01:18.305Z,27.40
2022-08-23T02:02:18.256Z,27.47
2022-08-23T02:03:18.256Z,27.40
2022-08-23T02:04:18.262Z,27.41
2022-08-23T02:05:18.838Z,27.46
2022-08-23T02:06:18.257Z,27.39
2022-08-23T02:07:18.258Z,27.40
2022-08-23T02:08:18.261Z,27.44
2022-08-23T02:09:18.278Z,27.49
2022-08-23T02:10:18.260Z,27.46
2022-08-23T02:11:18.259Z,27.44
2022-08-23T02:12:18.262Z,27.40
2022-08-23T02:13:18.263Z,27.44
2022-08-23T02:14:18.262Z,27.51
2022-08-23T02:15:18.261Z,27.44
2022-08-23T02:16:18.262Z,27.40
2022-08-23T02:17:18.265Z,27.40
2022-08-23T02:18:18.264Z,27.41
2022-08-23T02:19:18.263Z,27.49
2022-08-23T02:20:18.265Z,27.49
2022-08-23T02:21:18.265Z,27.46
2022-08-23T02:22:18.266Z,27.49
2022-08-23T02:23:18.265Z,27.49
2022-08-23T02:24:18.267Z,27.43
2022-08-23T02:25:18.266Z,27.50
2022-08-23T02:26:18.268Z,27.37
2022-08-23T02:27:18.267Z,27.50
2022-08-23T02:28:18.270Z,27.39
2022-08-23T02:29:18.269Z,27.40
2022-08-23T02:30:18.268Z,27.49
2022-08-23T02:31:18.285Z,27.50
2022-08-23T02:32:18.270Z,27.51
2022-08-23T02:33:18.274Z,27.46
2022-08-23T02:34:18.273Z,27.44
2022-08-23T02:35:18.272Z,27.50
2022-08-23T02:37:18.272Z,27.46
2022-08-23T02:38:18.277Z,27.47
2022-08-23T02:39:18.274Z,27.41
2022-08-23T02:40:18.367Z,27.49
2022-08-23T02:41:18.274Z,27.44
2022-08-23T02:42:18.276Z,27.44
2022-08-23T02:43:18.275Z,27.47
2022-08-23T02:44:18.279Z,27.46
2022-08-23T02:45:18.276Z,27.39
2022-08-23T02:46:18.279Z,27.37
2022-08-23T02:47:18.278Z,27.39
2022-08-23T02:48:18.279Z,27.51
2022-08-23T02:49:18.278Z,27.44
2022-08-23T02:50:18.279Z,27.51
2022-08-23T02:51:18.280Z,27.51
2022-08-23T02:52:18.282Z,27.36
2022-08-23T02:53:18.282Z,27.44
2022-08-23T02:54:18.281Z,27.44
2022-08-23T02:55:18.282Z,27.50
2022-08-23T02:56:21.927Z,27.43
2022-08-23T02:57:18.284Z,27.46
2022-08-23T02:58:18.286Z,27.46
2022-08-23T02:59:18.284Z,27.41
2022-08-23T03:00:18.286Z,27.49
2022-08-23T03:01:18.285Z,27.46
2022-08-23T03:02:18.309Z,27.54
2022-08-23T03:03:18.286Z,27.46
2022-08-23T03:04:18.289Z,27.47
2022-08-23T03:05:18.290Z,27.44
2022-08-23T03:06:25.550Z,27.46
2022-08-23T03:07:18.293Z,27.47
2022-08-23T03:08:18.292Z,27.36
2022-08-23T03:09:18.288Z,27.50
2022-08-23T03:10:18.289Z,27.47
2022-08-23T03:11:18.289Z,27.39
2022-08-23T03:12:18.290Z,27.50
2022-08-23T03:13:18.291Z,27.46
2022-08-23T03:14:18.291Z,27.44
2022-08-23T03:15:18.292Z,27.46
2022-08-23T03:16:18.299Z,27.32
2022-08-23T03:17:18.293Z,27.47
2022-08-23T03:18:18.296Z,27.46
2022-08-23T03:19:18.292Z,27.46
2022-08-23T03:20:18.295Z,27.49
2022-08-23T03:21:18.294Z,27.46
2022-08-23T03:22:18.297Z,27.51
2022-08-23T03:23:18.296Z,27.40
2022-08-23T03:24:18.299Z,27.41
2022-08-23T03:25:18.301Z,27.46
2022-08-23T03:26:18.297Z,27.40
2022-08-23T03:27:18.298Z,27.46
2022-08-23T03:28:18.298Z,27.46
2022-08-23T03:29:18.300Z,27.47
2022-08-23T03:30:20.045Z,27.49
2022-08-23T03:31:18.300Z,27.54
2022-08-23T03:32:18.300Z,27.40
2022-08-23T03:33:18.302Z,27.49
2022-08-23T03:34:18.303Z,27.50
2022-08-23T03:35:18.301Z,27.40
2022-08-23T03:36:18.303Z,27.46
2022-08-23T03:37:18.310Z,27.49
2022-08-23T03:38:18.304Z,27.41
2022-08-23T03:39:18.304Z,27.43
2022-08-23T03:40:18.394Z,27.46
2022-08-23T03:41:18.309Z,27.51
2022-08-23T03:42:18.307Z,27.44
2022-08-23T03:43:18.306Z,27.49
2022-08-23T03:44:18.307Z,27.47
2022-08-23T03:45:18.308Z,27.41
2022-08-23T03:46:18.307Z,27.51
2022-08-23T03:47:18.314Z,27.49
2022-08-23T03:48:18.308Z,27.44
2022-08-23T03:49:18.309Z,27.49
2022-08-23T03:50:18.310Z,27.50
2022-08-23T03:51:18.309Z,27.50
2022-08-23T03:52:18.311Z,27.55
2022-08-23T03:53:18.312Z,27.46
2022-08-23T03:54:18.312Z,27.47
2022-08-23T03:55:18.312Z,27.46
2022-08-23T03:56:18.313Z,27.49
2022-08-23T03:57:18.313Z,27.50
2022-08-23T03:58:18.317Z,27.37
2022-08-23T03:59:18.314Z,27.44
2022-08-23T04:00:20.448Z,27.54
2022-08-23T04:01:18.340Z,27.51
2022-08-23T04:02:18.407Z,27.47
2022-08-23T04:03:18.316Z,27.50
2022-08-23T04:04:18.327Z,27.51
2022-08-23T04:05:18.317Z,27.50
2022-08-23T04:06:18.319Z,27.54
2022-08-23T04:07:18.318Z,27.50
2022-08-23T04:08:27.007Z,27.50
2022-08-23T04:09:18.321Z,27.50
2022-08-23T04:10:18.323Z,27.49
2022-08-23T04:11:18.324Z,27.50
2022-08-23T04:12:18.333Z,27.55
2022-08-23T04:13:18.323Z,27.44
2022-08-23T04:14:18.322Z,27.55
2022-08-23T04:15:18.323Z,27.49
2022-08-23T04:16:18.324Z,27.47
2022-08-23T04:17:18.322Z,27.51
2022-08-23T04:18:18.324Z,27.46
2022-08-23T04:19:18.324Z,27.47
2022-08-23T04:20:18.326Z,27.50
2022-08-23T04:21:18.326Z,27.51
2022-08-23T04:22:18.326Z,27.51
2022-08-23T04:23:18.327Z,27.47
2022-08-23T04:24:18.328Z,27.49
2022-08-23T04:25:34.361Z,27.50
2022-08-23T04:26:18.331Z,27.55
2022-08-23T04:27:18.334Z,27.50
2022-08-23T04:28:18.329Z,27.47
2022-08-23T04:29:33.517Z,27.54
2022-08-23T04:30:18.333Z,27.54
2022-08-23T04:31:18.330Z,27.50
2022-08-23T04:32:28.291Z,27.50
2022-08-23T04:33:18.422Z,27.55
2022-08-23T04:34:18.332Z,27.50
2022-08-23T04:35:18.333Z,27.54
2022-08-23T04:36:18.333Z,27.51
2022-08-23T04:37:18.334Z,27.46
2022-08-23T04:38:25.021Z,27.51
2022-08-23T04:39:18.335Z,27.47
2022-08-23T04:40:18.598Z,27.50
2022-08-23T04:41:18.335Z,27.54
2022-08-23T04:42:18.336Z,27.44
2022-08-23T04:43:18.337Z,27.50
2022-08-23T04:44:18.337Z,27.51
2022-08-23T04:45:18.338Z,27.55
2022-08-23T04:46:18.339Z,27.54
2022-08-23T04:47:18.338Z,27.55
2022-08-23T04:48:18.340Z,27.50
2022-08-23T04:49:18.339Z,27.49
2022-08-23T04:50:18.340Z,27.54
2022-08-23T04:51:18.339Z,27.62
2022-08-23T04:52:19.617Z,27.55
2022-08-23T04:53:18.342Z,27.50
2022-08-23T04:54:18.998Z,27.51
2022-08-23T04:55:18.352Z,27.54
2022-08-23T04:56:18.346Z,27.51
2022-08-23T04:57:18.350Z,27.46
2022-08-23T04:58:18.344Z,27.54
2022-08-23T04:59:18.344Z,27.51
2022-08-23T05:00:18.351Z,27.54
2022-08-23T05:01:18.403Z,27.51
2022-08-23T05:02:18.346Z,27.59
2022-08-23T05:03:18.347Z,27.60
2022-08-23T05:04:18.348Z,27.55
2022-08-23T05:05:18.349Z,27.62
2022-08-23T05:06:18.349Z,27.57
2022-08-23T05:07:18.349Z,27.62
2022-08-23T05:08:18.352Z,27.60
2022-08-23T05:09:20.721Z,27.59
2022-08-23T05:10:18.352Z,27.60
2022-08-23T05:11:18.351Z,27.54
2022-08-23T05:12:18.353Z,27.54
2022-08-23T05:13:18.351Z,27.55
2022-08-23T05:14:18.352Z,27.59
2022-08-23T05:15:18.353Z,27.59
2022-08-23T05:16:18.354Z,27.49
2022-08-23T05:17:18.355Z,27.49
2022-08-23T05:18:18.355Z,27.57
2022-08-23T05:19:18.356Z,27.59
2022-08-23T05:20:18.357Z,27.51
2022-08-23T05:21:18.361Z,27.60
2022-08-23T05:22:18.358Z,27.57
2022-08-23T05:23:18.357Z,27.55
2022-08-23T05:24:18.359Z,27.59
2022-08-23T05:25:18.359Z,27.60
2022-08-23T05:26:18.359Z,27.59
2022-08-23T05:27:18.361Z,27.63
2022-08-23T05:28:18.360Z,27.59
2022-08-23T05:29:18.360Z,27.59
2022-08-23T05:30:18.363Z,27.57
2022-08-23T05:31:18.361Z,27.57
2022-08-23T05:32:18.363Z,27.57
2022-08-23T05:33:18.364Z,27.62
2022-08-23T05:34:22.438Z,27.54
2022-08-23T05:35:18.364Z,27.55
2022-08-23T05:36:18.365Z,27.66
2022-08-23T05:37:18.366Z,27.54
2022-08-23T05:38:20.777Z,27.50
2022-08-23T05:39:24.193Z,27.50
2022-08-23T05:40:18.429Z,27.62
2022-08-23T05:41:18.366Z,27.59
2022-08-23T05:42:18.367Z,27.57
2022-08-23T05:43:18.367Z,27.63
2022-08-23T05:44:18.369Z,27.60
2022-08-23T05:45:21.203Z,27.57
2022-08-23T05:46:19.848Z,27.55
2022-08-23T05:47:23.254Z,27.50
2022-08-23T05:48:18.496Z,27.59
2022-08-23T05:49:20.985Z,27.57
2022-08-23T05:50:18.371Z,27.54
2022-08-23T05:51:18.372Z,27.51
2022-08-23T05:52:18.375Z,27.57
2022-08-23T05:53:18.376Z,27.59
2022-08-23T05:54:18.372Z,27.59
2022-08-23T05:55:18.377Z,27.65
2022-08-23T05:56:18.375Z,27.63
2022-08-23T05:57:18.376Z,27.59
2022-08-23T05:58:18.377Z,27.59
2022-08-23T05:59:18.384Z,27.65
2022-08-23T06:00:18.377Z,27.65
2022-08-23T06:01:18.407Z,27.63
2022-08-23T06:02:18.378Z,27.63
2022-08-23T06:03:18.383Z,27.60
2022-08-23T06:04:18.379Z,27.62
2022-08-23T06:05:18.381Z,27.59
2022-08-23T06:06:18.382Z,27.63
2022-08-23T06:07:18.396Z,27.62
2022-08-23T06:08:18.385Z,27.62
2022-08-23T06:09:18.397Z,27.63
2022-08-23T06:10:18.385Z,27.66
2022-08-23T06:11:18.384Z,27.62
2022-08-23T06:12:18.389Z,27.70
2022-08-23T06:13:18.385Z,27.67
2022-08-23T06:14:18.502Z,27.67
2022-08-23T06:15:18.387Z,27.62
2022-08-23T06:16:18.384Z,27.66
2022-08-23T06:17:18.388Z,27.60
2022-08-23T06:18:18.390Z,27.63
2022-08-23T06:19:18.389Z,27.66
2022-08-23T06:20:18.437Z,27.66
2022-08-23T06:21:18.390Z,27.67
2022-08-23T06:22:18.389Z,27.63
2022-08-23T06:23:18.397Z,27.69
2022-08-23T06:24:18.390Z,27.67
2022-08-23T06:25:18.392Z,27.65
2022-08-23T06:26:18.394Z,27.72
2022-08-23T06:27:18.395Z,27.69
2022-08-23T06:28:18.392Z,27.67
2022-08-23T06:29:18.503Z,27.63
2022-08-23T06:30:18.394Z,27.74
2022-08-23T06:31:18.466Z,27.66
2022-08-23T06:32:18.442Z,27.66
2022-08-23T06:33:18.425Z,27.69
2022-08-23T06:34:18.398Z,27.67
2022-08-23T06:35:38.678Z,27.63
2022-08-23T06:36:18.398Z,27.72
2022-08-23T06:37:18.400Z,27.62
2022-08-23T06:38:18.402Z,27.74
2022-08-23T06:39:18.400Z,27.78
2022-08-23T06:40:18.457Z,27.72
2022-08-23T06:41:18.402Z,27.72
2022-08-23T06:42:38.368Z,27.77
2022-08-23T06:43:18.407Z,27.70
2022-08-23T06:44:18.402Z,27.78
2022-08-23T06:45:18.407Z,27.81
2022-08-23T06:46:18.466Z,27.75
2022-08-23T06:47:18.406Z,27.74
2022-08-23T06:48:19.012Z,27.75
2022-08-23T06:49:18.407Z,27.75
2022-08-23T06:50:18.405Z,27.75
2022-08-23T06:51:18.408Z,27.70
2022-08-23T06:52:18.407Z,27.79
2022-08-23T06:53:18.409Z,27.84
2022-08-23T06:54:18.407Z,27.82
2022-08-23T06:55:18.411Z,27.75
2022-08-23T06:56:18.409Z,27.90
2022-08-23T06:57:18.412Z,27.81
2022-08-23T06:58:18.422Z,27.82
2022-08-23T06:59:18.415Z,27.88
2022-08-23T07:00:22.075Z,27.85
2022-08-23T07:01:42.068Z,27.87
2022-08-23T07:02:18.525Z,27.87
2022-08-23T07:03:18.417Z,27.74
2022-08-23T07:04:18.415Z,27.75
2022-08-23T07:05:18.416Z,27.88
2022-08-23T07:06:18.416Z,27.87
2022-08-23T07:07:18.417Z,27.90
2022-08-23T07:08:18.417Z,27.84
2022-08-23T07:09:18.419Z,27.93
2022-08-23T07:10:18.420Z,27.75
2022-08-23T07:11:18.421Z,27.82
2022-08-23T07:12:18.423Z,27.92
2022-08-23T07:13:18.797Z,27.79
2022-08-23T07:14:18.421Z,27.78
2022-08-23T07:15:18.424Z,27.84
2022-08-23T07:16:18.470Z,27.93
2022-08-23T07:17:18.425Z,27.92
2022-08-23T07:18:18.424Z,27.87
2022-08-23T07:19:18.427Z,27.84
2022-08-23T07:20:18.425Z,27.81
2022-08-23T07:21:18.428Z,27.75
2022-08-23T07:22:18.427Z,27.81
2022-08-23T07:23:18.429Z,27.90
2022-08-23T07:24:18.430Z,27.78
2022-08-23T07:25:18.431Z,27.81
2022-08-23T07:26:18.430Z,27.87
2022-08-23T07:27:18.431Z,27.93
2022-08-23T07:28:18.433Z,27.81
2022-08-23T07:29:18.433Z,27.87
2022-08-23T07:30:18.431Z,27.87
2022-08-23T07:31:18.436Z,27.92
2022-08-23T07:32:18.909Z,27.87
2022-08-23T07:33:18.436Z,27.90
2022-08-23T07:34:18.436Z,27.85
2022-08-23T07:35:18.495Z,27.75
2022-08-23T07:36:18.557Z,27.96
2022-08-23T07:37:18.903Z,27.84
2022-08-23T07:38:18.439Z,27.92
2022-08-23T07:39:18.440Z,27.93
2022-08-23T07:40:20.739Z,27.99
2022-08-23T07:41:18.442Z,27.99
2022-08-23T07:42:23.718Z,27.81
2022-08-23T07:43:18.443Z,27.87
2022-08-23T07:44:18.657Z,27.82
2022-08-23T07:45:18.445Z,27.72
2022-08-23T07:46:18.493Z,27.84
2022-08-23T07:47:18.446Z,27.70
2022-08-23T07:48:37.093Z,27.93
2022-08-23T07:49:18.448Z,27.88
2022-08-23T07:50:18.447Z,27.75
2022-08-23T07:51:18.448Z,27.77
2022-08-23T07:52:18.451Z,27.87
2022-08-23T07:53:37.899Z,27.69
2022-08-23T07:54:18.449Z,27.88
2022-08-23T07:55:18.454Z,27.79
2022-08-23T07:56:18.453Z,27.70
2022-08-23T07:57:18.452Z,27.82
2022-08-23T07:58:18.452Z,27.81
2022-08-23T07:59:18.454Z,27.82
2022-08-23T08:00:18.454Z,27.72
2022-08-23T08:01:18.510Z,27.81
2022-08-23T08:02:18.510Z,27.78
2022-08-23T08:03:18.542Z,27.81
2022-08-23T08:04:18.456Z,27.82
2022-08-23T08:05:21.788Z,27.81
2022-08-23T08:06:18.457Z,27.77
2022-08-23T08:07:20.722Z,27.75
2022-08-23T08:08:18.459Z,27.82
2022-08-23T08:09:18.461Z,27.75
2022-08-23T08:10:18.919Z,27.75
2022-08-23T08:11:18.461Z,27.82
2022-08-23T08:12:18.462Z,27.77
2022-08-23T08:13:18.464Z,27.78
2022-08-23T08:14:18.462Z,27.82
2022-08-23T08:15:18.465Z,27.87
2022-08-23T08:16:18.543Z,27.85
2022-08-23T08:17:18.468Z,27.87
2022-08-23T08:18:18.466Z,27.77
2022-08-23T08:19:18.831Z,27.77
2022-08-23T08:20:18.467Z,27.72
2022-08-23T08:21:18.470Z,27.81
2022-08-23T08:22:18.469Z,27.82
2022-08-23T08:23:18.470Z,27.78
2022-08-23T08:24:18.470Z,27.75
2022-08-23T08:25:18.608Z,27.82
2022-08-23T08:26:18.472Z,27.79
2022-08-23T08:27:18.472Z,27.77
2022-08-23T08:28:18.473Z,27.78
2022-08-23T08:29:18.474Z,27.75
2022-08-23T08:30:18.473Z,27.78
2022-08-23T08:31:18.646Z,27.82
2022-08-23T08:32:18.474Z,27.78
2022-08-23T08:33:18.477Z,27.75
2022-08-23T08:34:18.475Z,27.85
2022-08-23T08:35:18.478Z,27.75
2022-08-23T08:36:18.477Z,27.78
2022-08-23T08:37:18.478Z,27.72
2022-08-23T08:38:18.479Z,27.78
2022-08-23T08:39:18.481Z,27.72
2022-08-23T08:40:18.546Z,27.81
2022-08-23T08:41:18.482Z,27.78
2022-08-23T08:42:18.480Z,27.81
2022-08-23T08:43:18.483Z,27.67
2022-08-23T08:44:18.482Z,27.75
2022-08-23T08:45:18.485Z,27.74
2022-08-23T08:46:18.540Z,27.66
2022-08-23T08:47:18.487Z,27.77
2022-08-23T08:48:18.485Z,27.65
2022-08-23T08:49:18.488Z,27.72
2022-08-23T08:50:18.491Z,27.67
2022-08-23T08:51:18.488Z,27.74
2022-08-23T08:52:18.488Z,27.70
2022-08-23T08:53:18.490Z,27.77
2022-08-23T08:54:18.489Z,27.74
2022-08-23T08:55:18.491Z,27.69
2022-08-23T08:56:18.491Z,27.78
2022-08-23T08:57:18.499Z,27.70
2022-08-23T08:58:18.495Z,27.72
2022-08-23T08:59:18.494Z,27.70
2022-08-23T09:00:18.612Z,27.75
2022-08-23T09:01:18.519Z,27.72
2022-08-23T09:02:32.755Z,27.77
2022-08-23T09:03:18.591Z,27.78
2022-08-23T09:04:18.497Z,27.75
2022-08-23T09:05:18.497Z,27.84
2022-08-23T09:06:18.496Z,27.87
2022-08-23T09:07:18.498Z,27.81
2022-08-23T09:08:18.498Z,27.90
2022-08-23T09:09:18.501Z,27.85
2022-08-23T09:10:18.585Z,27.78
2022-08-23T09:11:18.538Z,27.90
2022-08-23T09:12:18.503Z,27.75
2022-08-23T09:13:19.904Z,27.88
2022-08-23T09:14:18.515Z,27.87
2022-08-23T09:15:18.503Z,27.81
2022-08-23T09:16:18.567Z,27.84
2022-08-23T09:17:18.506Z,27.85
2022-08-23T09:18:18.505Z,27.81
2022-08-23T09:19:18.507Z,27.77
2022-08-23T09:20:18.516Z,27.81
2022-08-23T09:21:18.509Z,27.75
2022-08-23T09:22:18.508Z,27.81
2022-08-23T09:23:18.510Z,27.79
2022-08-23T09:24:18.511Z,27.75
2022-08-23T09:25:18.514Z,27.82
2022-08-23T09:26:18.510Z,27.74
2022-08-23T09:27:18.512Z,27.82
2022-08-23T09:28:18.511Z,27.74
2022-08-23T09:29:18.515Z,27.81
2022-08-23T09:30:18.512Z,27.78
2022-08-23T09:31:18.560Z,27.84
2022-08-23T09:32:18.515Z,27.85
2022-08-23T09:33:18.516Z,27.78
2022-08-23T09:34:18.515Z,27.78
2022-08-23T09:35:18.519Z,27.79
2022-08-23T09:36:18.516Z,27.78
2022-08-23T09:37:18.519Z,27.79
2022-08-23T09:38:18.518Z,27.81
2022-08-23T09:39:18.520Z,27.85
2022-08-23T09:40:18.710Z,27.81
2022-08-23T09:41:18.521Z,27.87
2022-08-23T09:42:19.610Z,27.87
2022-08-23T09:43:18.522Z,27.75
2022-08-23T09:44:18.524Z,27.81
2022-08-23T09:45:18.525Z,27.94
2022-08-23T09:46:18.540Z,27.85
2022-08-23T09:47:18.525Z,27.79
2022-08-23T09:48:18.525Z,27.84
2022-08-23T09:49:18.527Z,27.82
2022-08-23T09:50:18.526Z,27.97
2022-08-23T09:51:18.527Z,27.82
2022-08-23T09:52:22.095Z,27.87
2022-08-23T09:53:18.529Z,27.90
2022-08-23T09:54:18.528Z,27.82
2022-08-23T09:55:18.531Z,27.87
2022-08-23T09:56:18.530Z,27.87
2022-08-23T09:57:18.532Z,27.92
2022-08-23T09:58:18.532Z,27.75
2022-08-23T09:59:18.545Z,27.70
2022-08-23T10:00:18.536Z,27.82
2022-08-23T10:01:18.592Z,27.88
2022-08-23T10:02:18.533Z,27.78
2022-08-23T10:03:18.537Z,27.79
2022-08-23T10:04:18.593Z,27.75
2022-08-23T10:05:18.540Z,27.79
2022-08-23T10:06:18.536Z,27.72
2022-08-23T10:07:18.538Z,27.92
2022-08-23T10:08:18.541Z,27.94
2022-08-23T10:09:18.541Z,27.93
2022-08-23T10:10:18.541Z,27.85
2022-08-23T10:11:18.540Z,27.87
2022-08-23T10:12:18.542Z,27.94
2022-08-23T10:13:18.543Z,27.72
2022-08-23T10:14:18.542Z,27.96
2022-08-23T10:15:18.543Z,27.96
2022-08-23T10:16:18.596Z,27.75
2022-08-23T10:17:18.543Z,27.82
2022-08-23T10:18:18.545Z,27.84
2022-08-23T10:19:18.545Z,27.87
2022-08-23T10:20:18.547Z,27.78
2022-08-23T10:21:21.128Z,27.87
2022-08-23T10:22:18.549Z,27.85
2022-08-23T10:23:18.548Z,27.96
2022-08-23T10:24:18.550Z,27.93
2022-08-23T10:25:18.552Z,27.94
2022-08-23T10:26:18.551Z,27.93
2022-08-23T10:27:18.550Z,27.85
2022-08-23T10:28:18.553Z,27.92
2022-08-23T10:29:18.554Z,27.87
2022-08-23T10:30:18.553Z,27.94
2022-08-23T10:31:18.627Z,27.94
2022-08-23T10:32:18.555Z,27.94
2022-08-23T10:33:18.889Z,27.92
2022-08-23T10:34:18.555Z,27.92
2022-08-23T10:35:18.556Z,27.92
2022-08-23T10:36:18.558Z,27.99
2022-08-23T10:37:18.558Z,27.90
2022-08-23T10:38:18.557Z,27.92
2022-08-23T10:39:18.558Z,27.90
2022-08-23T10:40:18.631Z,27.87
2022-08-23T10:41:18.563Z,27.84
2022-08-23T10:42:18.565Z,27.87
2022-08-23T10:43:18.561Z,27.87
2022-08-23T10:44:18.563Z,27.92
2022-08-23T10:45:18.563Z,27.84
2022-08-23T10:46:18.608Z,27.88
2022-08-23T10:47:18.563Z,27.92
2022-08-23T10:48:21.408Z,27.94
2022-08-23T10:49:18.565Z,27.93
2022-08-23T10:50:18.569Z,27.90
2022-08-23T10:51:23.014Z,27.93
2022-08-23T10:52:18.569Z,27.81
2022-08-23T10:53:18.569Z,27.87
2022-08-23T10:54:18.569Z,27.87
2022-08-23T10:55:18.568Z,27.84
2022-08-23T10:56:18.571Z,27.94
2022-08-23T10:57:18.585Z,27.88
2022-08-23T10:58:18.573Z,27.75
2022-08-23T10:59:18.572Z,27.88
2022-08-23T11:00:18.592Z,27.87
2022-08-23T11:01:18.599Z,27.81
2022-08-23T11:02:18.594Z,27.84
2022-08-23T11:03:18.576Z,27.77
2022-08-23T11:04:18.576Z,27.87
2022-08-23T11:05:18.579Z,27.85
2022-08-23T11:06:18.578Z,27.77
2022-08-23T11:07:18.578Z,27.79
2022-08-23T11:08:18.579Z,27.75
2022-08-23T11:09:18.580Z,27.81
2022-08-23T11:10:18.579Z,27.84
2022-08-23T11:11:18.581Z,27.96
2022-08-23T11:12:18.583Z,27.82
2022-08-23T11:13:18.584Z,27.88
2022-08-23T11:14:18.584Z,27.75
2022-08-23T11:15:18.583Z,27.82
2022-08-23T11:16:18.586Z,27.84
2022-08-23T11:17:18.585Z,27.90
2022-08-23T11:18:18.600Z,27.88
2022-08-23T11:19:18.586Z,27.96
2022-08-23T11:20:18.588Z,27.87
2022-08-23T11:21:18.589Z,27.85
2022-08-23T11:22:18.592Z,27.97
2022-08-23T11:23:18.587Z,27.82
2022-08-23T11:24:18.590Z,27.72
2022-08-23T11:25:18.589Z,27.92
2022-08-23T11:26:18.591Z,27.81
2022-08-23T11:27:18.592Z,27.85
2022-08-23T11:28:18.592Z,27.87
2022-08-23T11:29:18.593Z,27.77
2022-08-23T11:30:18.595Z,27.84
2022-08-23T11:31:18.651Z,27.82
2022-08-23T11:32:18.598Z,27.92
2022-08-23T11:33:18.596Z,27.88
2022-08-23T11:34:18.597Z,27.77
2022-08-23T11:35:19.167Z,27.78
2022-08-23T11:36:18.598Z,27.94
2022-08-23T11:37:18.599Z,27.87
2022-08-23T11:38:22.561Z,27.81
2022-08-23T11:39:20.258Z,27.96
2022-08-23T11:40:18.631Z,27.87
2022-08-23T11:41:18.601Z,27.79
2022-08-23T11:42:18.602Z,27.87
2022-08-23T11:43:18.603Z,27.94
2022-08-23T11:44:18.606Z,27.96
2022-08-23T11:45:18.604Z,27.90
2022-08-23T11:46:18.637Z,27.87
2022-08-23T11:47:18.604Z,27.93
2022-08-23T11:48:18.605Z,27.92
2022-08-23T11:49:18.609Z,27.92
2022-08-23T11:50:18.607Z,27.93
2022-08-23T11:51:18.607Z,27.85
2022-08-23T11:52:18.608Z,27.92
2022-08-23T11:53:18.609Z,27.93
2022-08-23T11:54:18.611Z,27.90
2022-08-23T11:55:18.610Z,27.82
2022-08-23T11:56:18.612Z,27.87
2022-08-23T11:57:18.613Z,27.93
2022-08-23T11:58:18.620Z,27.88
2022-08-23T11:59:18.614Z,27.93
2022-08-23T12:00:26.054Z,27.90
2022-08-23T12:01:18.615Z,27.88
2022-08-23T12:02:18.722Z,27.88
2022-08-23T12:03:18.807Z,27.92
2022-08-23T12:04:18.618Z,27.92
2022-08-23T12:05:18.617Z,27.99
2022-08-23T12:06:18.620Z,27.85
2022-08-23T12:07:18.619Z,27.96
2022-08-23T12:08:18.623Z,27.96
2022-08-23T12:09:18.621Z,27.96
2022-08-23T12:10:18.621Z,28.00
2022-08-23T12:11:18.628Z,27.99
2022-08-23T12:12:18.623Z,27.99
2022-08-23T12:13:18.627Z,27.97
2022-08-23T12:14:18.625Z,27.97
2022-08-23T12:15:18.626Z,28.07
2022-08-23T12:16:18.732Z,28.07
2022-08-23T12:17:19.308Z,28.04
2022-08-23T12:18:23.936Z,28.12
2022-08-23T12:19:18.627Z,28.15
2022-08-23T12:20:18.634Z,28.22
2022-08-23T12:21:18.631Z,28.22
2022-08-23T12:22:18.630Z,28.14
2022-08-23T12:23:18.629Z,28.19
2022-08-23T12:24:18.632Z,28.19
2022-08-23T12:25:18.633Z,28.17
2022-08-23T12:26:18.634Z,28.19
2022-08-23T12:27:18.633Z,28.24
2022-08-23T12:28:18.635Z,28.22
2022-08-23T12:29:18.635Z,28.21
2022-08-23T12:30:18.642Z,28.24
2022-08-23T12:31:19.302Z,28.30
2022-08-23T12:32:18.640Z,28.27
2022-08-23T12:33:18.639Z,28.36
2022-08-23T12:34:18.641Z,28.30
2022-08-23T12:35:18.641Z,28.25
2022-08-23T12:36:18.643Z,28.31
2022-08-23T12:37:18.642Z,28.39
2022-08-23T12:38:18.646Z,28.34
2022-08-23T12:39:18.646Z,28.37
2022-08-23T12:40:18.708Z,28.41
2022-08-23T12:41:18.649Z,28.36
2022-08-23T12:42:18.647Z,28.44
2022-08-23T12:43:22.557Z,28.46
2022-08-23T12:44:18.649Z,28.44
2022-08-23T12:45:18.651Z,28.41
2022-08-23T12:46:18.691Z,28.41
2022-08-23T12:47:18.651Z,28.49
2022-08-23T12:48:18.658Z,28.46
2022-08-23T12:49:18.655Z,28.52
2022-08-23T12:50:18.657Z,28.52
2022-08-23T12:51:18.657Z,28.56
2022-08-23T12:52:19.333Z,28.48
2022-08-23T12:53:18.658Z,28.49